sensor_id;sensor_type;location;lat;lon;timestamp;P1;durP1;ratioP1;P2;durP2;ratioP2
46745;SDS011;32493;50.514;9.678;2023-06-22T00:01:49;12.55;;;11.10;;
46745;SDS011;32493;50.514;9.678;2023-06-22T00:03:58;12.67;;;11.33;;
46745;SDS011;32493;50.514;9.678;2023-06-22T00:06:04;13.40;;;11.40;;
46745;SDS011;32493;50.514;9.678;2023-06-22T00:08:11;14.73;;;11.90;;
46745;SDS011;32493;50.514;9.678;2023-06-22T00:10:18;16.02;;;10.63;;
46745;SDS011;32493;50.514;9.678;2023-06-22T00:12:26;13.60;;;11.50;;
46745;SDS011;32493;50.514;9.678;2023-06-22T00:14:38;12.65;;;11.30;;
46745;SDS011;32493;50.514;9.678;2023-06-22T00:16:48;15.65;;;11.20;;
46745;SDS011;32493;50.514;9.678;2023-06-22T00:21:05;14.23;;;10.70;;
46745;SDS011;32493;50.514;9.678;2023-06-22T00:23:11;16.95;;;10.95;;
46745;SDS011;32493;50.514;9.678;2023-06-22T00:25:18;14.27;;;11.60;;
46745;SDS011;32493;50.514;9.678;2023-06-22T00:27:24;14.52;;;11.07;;
46745;SDS011;32493;50.514;9.678;2023-06-22T00:29:29;16.23;;;12.32;;
46745;SDS011;32493;50.514;9.678;2023-06-22T00:31:37;19.45;;;12.75;;
46745;SDS011;32493;50.514;9.678;2023-06-22T00:33:43;14.50;;;12.40;;
46745;SDS011;32493;50.514;9.678;2023-06-22T00:35:52;15.05;;;11.82;;
46745;SDS011;32493;50.514;9.678;2023-06-22T00:37:58;16.70;;;11.57;;
46745;SDS011;32493;50.514;9.678;2023-06-22T00:40:08;15.65;;;11.60;;
46745;SDS011;32493;50.514;9.678;2023-06-22T00:42:14;13.73;;;11.57;;
46745;SDS011;32493;50.514;9.678;2023-06-22T00:44:20;14.68;;;10.75;;
46745;SDS011;32493;50.514;9.678;2023-06-22T00:46:29;13.05;;;10.60;;
46745;SDS011;32493;50.514;9.678;2023-06-22T00:50:43;12.60;;;10.82;;
46745;SDS011;32493;50.514;9.678;2023-06-22T00:52:54;15.35;;;11.63;;
46745;SDS011;32493;50.514;9.678;2023-06-22T00:55:07;14.95;;;11.68;;
46745;SDS011;32493;50.514;9.678;2023-06-22T00:57:15;15.68;;;11.43;;
46745;SDS011;32493;50.514;9.678;2023-06-22T00:59:29;14.32;;;10.68;;
46745;SDS011;32493;50.514;9.678;2023-06-22T01:01:36;12.80;;;11.38;;
46745;SDS011;32493;50.514;9.678;2023-06-22T01:03:45;19.17;;;12.07;;
46745;SDS011;32493;50.514;9.678;2023-06-22T01:06:03;13.45;;;12.05;;
46745;SDS011;32493;50.514;9.678;2023-06-22T01:08:20;15.18;;;11.60;;
46745;SDS011;32493;50.514;9.678;2023-06-22T01:10:40;14.30;;;11.27;;
46745;SDS011;32493;50.514;9.678;2023-06-22T01:12:58;15.52;;;11.40;;
46745;SDS011;32493;50.514;9.678;2023-06-22T01:15:08;15.13;;;12.07;;
46745;SDS011;32493;50.514;9.678;2023-06-22T01:17:20;15.35;;;12.30;;
46745;SDS011;32493;50.514;9.678;2023-06-22T01:19:37;16.13;;;11.85;;
46745;SDS011;32493;50.514;9.678;2023-06-22T01:21:49;16.02;;;12.13;;
46745;SDS011;32493;50.514;9.678;2023-06-22T01:26:28;14.48;;;11.98;;
46745;SDS011;32493;50.514;9.678;2023-06-22T01:28:45;17.13;;;12.15;;
46745;SDS011;32493;50.514;9.678;2023-06-22T01:30:53;14.10;;;12.05;;
46745;SDS011;32493;50.514;9.678;2023-06-22T01:33:12;16.95;;;12.73;;
46745;SDS011;32493;50.514;9.678;2023-06-22T01:35:24;15.15;;;12.00;;
46745;SDS011;32493;50.514;9.678;2023-06-22T01:37:34;16.40;;;12.23;;
46745;SDS011;32493;50.514;9.678;2023-06-22T01:39:46;16.13;;;12.85;;
46745;SDS011;32493;50.514;9.678;2023-06-22T01:41:57;13.48;;;12.07;;
46745;SDS011;32493;50.514;9.678;2023-06-22T01:46:13;16.17;;;11.45;;
46745;SDS011;32493;50.514;9.678;2023-06-22T01:48:27;16.33;;;11.82;;
46745;SDS011;32493;50.514;9.678;2023-06-22T01:50:35;14.48;;;11.35;;
46745;SDS011;32493;50.514;9.678;2023-06-22T01:52:45;15.40;;;10.98;;
46745;SDS011;32493;50.514;9.678;2023-06-22T01:54:50;14.75;;;11.73;;
46745;SDS011;32493;50.514;9.678;2023-06-22T01:56:56;14.77;;;11.27;;
46745;SDS011;32493;50.514;9.678;2023-06-22T01:59:06;15.80;;;10.93;;
46745;SDS011;32493;50.514;9.678;2023-06-22T02:01:23;13.32;;;11.02;;
46745;SDS011;32493;50.514;9.678;2023-06-22T02:03:34;13.63;;;10.60;;
46745;SDS011;32493;50.514;9.678;2023-06-22T02:05:46;17.25;;;11.75;;
46745;SDS011;32493;50.514;9.678;2023-06-22T02:08:02;19.02;;;11.90;;
46745;SDS011;32493;50.514;9.678;2023-06-22T02:10:13;13.43;;;10.45;;
46745;SDS011;32493;50.514;9.678;2023-06-22T02:12:25;17.50;;;11.00;;
46745;SDS011;32493;50.514;9.678;2023-06-22T02:14:36;16.65;;;10.77;;
46745;SDS011;32493;50.514;9.678;2023-06-22T02:16:49;14.98;;;10.68;;
46745;SDS011;32493;50.514;9.678;2023-06-22T02:19:01;14.30;;;10.60;;
46745;SDS011;32493;50.514;9.678;2023-06-22T02:21:08;14.05;;;11.10;;
46745;SDS011;32493;50.514;9.678;2023-06-22T02:23:17;15.68;;;11.20;;
46745;SDS011;32493;50.514;9.678;2023-06-22T02:25:22;15.05;;;11.57;;
46745;SDS011;32493;50.514;9.678;2023-06-22T02:27:28;14.00;;;11.40;;
46745;SDS011;32493;50.514;9.678;2023-06-22T02:29:38;16.30;;;12.00;;
46745;SDS011;32493;50.514;9.678;2023-06-22T02:31:47;14.82;;;12.43;;
46745;SDS011;32493;50.514;9.678;2023-06-22T02:33:54;17.52;;;12.65;;
46745;SDS011;32493;50.514;9.678;2023-06-22T02:36:00;15.48;;;11.52;;
46745;SDS011;32493;50.514;9.678;2023-06-22T02:38:10;16.95;;;12.23;;
46745;SDS011;32493;50.514;9.678;2023-06-22T02:40:18;16.92;;;12.57;;
46745;SDS011;32493;50.514;9.678;2023-06-22T02:42:25;14.30;;;11.82;;
46745;SDS011;32493;50.514;9.678;2023-06-22T02:46:40;19.35;;;12.57;;
46745;SDS011;32493;50.514;9.678;2023-06-22T02:48:50;18.73;;;12.52;;
46745;SDS011;32493;50.514;9.678;2023-06-22T02:50:56;15.95;;;13.15;;
46745;SDS011;32493;50.514;9.678;2023-06-22T02:53:01;16.27;;;11.80;;
46745;SDS011;32493;50.514;9.678;2023-06-22T02:55:12;13.57;;;11.93;;
46745;SDS011;32493;50.514;9.678;2023-06-22T02:57:25;15.00;;;12.55;;
46745;SDS011;32493;50.514;9.678;2023-06-22T02:59:31;18.08;;;13.32;;
46745;SDS011;32493;50.514;9.678;2023-06-22T03:01:47;17.95;;;12.40;;
46745;SDS011;32493;50.514;9.678;2023-06-22T03:03:58;16.98;;;12.90;;
46745;SDS011;32493;50.514;9.678;2023-06-22T03:06:06;14.82;;;12.77;;
46745;SDS011;32493;50.514;9.678;2023-06-22T03:08:16;18.00;;;13.55;;
46745;SDS011;32493;50.514;9.678;2023-06-22T03:10:26;15.77;;;13.20;;
46745;SDS011;32493;50.514;9.678;2023-06-22T03:12:42;17.52;;;13.40;;
46745;SDS011;32493;50.514;9.678;2023-06-22T03:14:53;16.90;;;13.43;;
46745;SDS011;32493;50.514;9.678;2023-06-22T03:17:04;16.00;;;13.48;;
46745;SDS011;32493;50.514;9.678;2023-06-22T03:19:12;17.02;;;14.00;;
46745;SDS011;32493;50.514;9.678;2023-06-22T03:21:18;16.08;;;13.70;;
46745;SDS011;32493;50.514;9.678;2023-06-22T03:23:24;21.55;;;14.23;;
46745;SDS011;32493;50.514;9.678;2023-06-22T03:25:34;17.02;;;13.75;;
46745;SDS011;32493;50.514;9.678;2023-06-22T03:27:41;15.70;;;13.82;;
46745;SDS011;32493;50.514;9.678;2023-06-22T03:29:49;16.95;;;14.63;;
46745;SDS011;32493;50.514;9.678;2023-06-22T03:31:57;17.63;;;14.25;;
46745;SDS011;32493;50.514;9.678;2023-06-22T03:34:10;16.95;;;13.32;;
46745;SDS011;32493;50.514;9.678;2023-06-22T03:36:17;15.80;;;13.80;;
46745;SDS011;32493;50.514;9.678;2023-06-22T03:38:24;16.15;;;13.93;;
46745;SDS011;32493;50.514;9.678;2023-06-22T03:40:32;20.60;;;15.52;;
46745;SDS011;32493;50.514;9.678;2023-06-22T03:42:41;18.08;;;13.57;;
46745;SDS011;32493;50.514;9.678;2023-06-22T03:44:48;17.90;;;14.73;;
46745;SDS011;32493;50.514;9.678;2023-06-22T03:49:03;19.08;;;13.73;;
46745;SDS011;32493;50.514;9.678;2023-06-22T03:51:12;18.35;;;13.60;;
46745;SDS011;32493;50.514;9.678;2023-06-22T03:53:18;18.75;;;14.57;;
46745;SDS011;32493;50.514;9.678;2023-06-22T03:55:25;18.98;;;14.00;;
46745;SDS011;32493;50.514;9.678;2023-06-22T03:59:42;16.75;;;14.32;;
46745;SDS011;32493;50.514;9.678;2023-06-22T04:01:49;18.23;;;14.32;;
46745;SDS011;32493;50.514;9.678;2023-06-22T04:03:55;17.45;;;14.27;;
46745;SDS011;32493;50.514;9.678;2023-06-22T04:06:03;21.20;;;14.88;;
46745;SDS011;32493;50.514;9.678;2023-06-22T04:08:13;22.15;;;14.60;;
46745;SDS011;32493;50.514;9.678;2023-06-22T04:10:19;19.98;;;14.30;;
46745;SDS011;32493;50.514;9.678;2023-06-22T04:12:24;18.15;;;13.48;;
46745;SDS011;32493;50.514;9.678;2023-06-22T04:14:30;18.25;;;15.55;;
46745;SDS011;32493;50.514;9.678;2023-06-22T04:18:43;22.50;;;14.15;;
46745;SDS011;32493;50.514;9.678;2023-06-22T04:20:51;16.30;;;14.00;;
46745;SDS011;32493;50.514;9.678;2023-06-22T04:22:58;17.70;;;13.20;;
46745;SDS011;32493;50.514;9.678;2023-06-22T04:25:13;15.52;;;13.90;;
46745;SDS011;32493;50.514;9.678;2023-06-22T04:27:21;17.17;;;13.35;;
46745;SDS011;32493;50.514;9.678;2023-06-22T04:29:27;21.00;;;14.40;;
46745;SDS011;32493;50.514;9.678;2023-06-22T04:31:33;19.27;;;14.32;;
46745;SDS011;32493;50.514;9.678;2023-06-22T04:33:41;17.48;;;13.32;;
46745;SDS011;32493;50.514;9.678;2023-06-22T04:35:49;16.65;;;13.30;;
46745;SDS011;32493;50.514;9.678;2023-06-22T04:37:57;18.77;;;14.27;;
46745;SDS011;32493;50.514;9.678;2023-06-22T04:40:06;18.30;;;13.55;;
46745;SDS011;32493;50.514;9.678;2023-06-22T04:42:18;16.55;;;13.57;;
46745;SDS011;32493;50.514;9.678;2023-06-22T04:44:28;22.27;;;13.68;;
46745;SDS011;32493;50.514;9.678;2023-06-22T04:46:34;15.68;;;13.23;;
46745;SDS011;32493;50.514;9.678;2023-06-22T04:48:40;19.98;;;13.13;;
46745;SDS011;32493;50.514;9.678;2023-06-22T04:50:45;15.38;;;12.82;;
46745;SDS011;32493;50.514;9.678;2023-06-22T04:52:53;15.82;;;12.93;;
46745;SDS011;32493;50.514;9.678;2023-06-22T04:55:01;16.98;;;13.20;;
46745;SDS011;32493;50.514;9.678;2023-06-22T04:57:07;17.30;;;12.38;;
46745;SDS011;32493;50.514;9.678;2023-06-22T04:59:18;15.18;;;12.13;;
46745;SDS011;32493;50.514;9.678;2023-06-22T05:01:23;15.82;;;12.07;;
46745;SDS011;32493;50.514;9.678;2023-06-22T05:03:30;14.43;;;12.10;;
46745;SDS011;32493;50.514;9.678;2023-06-22T05:05:38;16.90;;;12.30;;
46745;SDS011;32493;50.514;9.678;2023-06-22T05:07:46;19.10;;;13.25;;
46745;SDS011;32493;50.514;9.678;2023-06-22T05:09:54;16.55;;;12.90;;
46745;SDS011;32493;50.514;9.678;2023-06-22T05:12:00;17.23;;;12.80;;
46745;SDS011;32493;50.514;9.678;2023-06-22T05:14:12;17.83;;;12.50;;
46745;SDS011;32493;50.514;9.678;2023-06-22T05:16:22;15.40;;;13.10;;
46745;SDS011;32493;50.514;9.678;2023-06-22T05:18:30;19.52;;;13.80;;
46745;SDS011;32493;50.514;9.678;2023-06-22T05:20:36;14.45;;;12.50;;
46745;SDS011;32493;50.514;9.678;2023-06-22T05:22:42;18.75;;;12.85;;
46745;SDS011;32493;50.514;9.678;2023-06-22T05:24:48;14.20;;;12.32;;
46745;SDS011;32493;50.514;9.678;2023-06-22T05:26:57;15.65;;;13.13;;
46745;SDS011;32493;50.514;9.678;2023-06-22T05:29:02;18.27;;;13.32;;
46745;SDS011;32493;50.514;9.678;2023-06-22T05:31:10;19.77;;;13.30;;
46745;SDS011;32493;50.514;9.678;2023-06-22T05:33:17;16.63;;;13.50;;
46745;SDS011;32493;50.514;9.678;2023-06-22T05:35:23;15.00;;;12.70;;
46745;SDS011;32493;50.514;9.678;2023-06-22T05:37:29;17.98;;;13.35;;
46745;SDS011;32493;50.514;9.678;2023-06-22T05:39:37;17.33;;;12.32;;
46745;SDS011;32493;50.514;9.678;2023-06-22T05:41:45;14.00;;;12.60;;
46745;SDS011;32493;50.514;9.678;2023-06-22T05:43:50;13.13;;;11.40;;
46745;SDS011;32493;50.514;9.678;2023-06-22T05:45:59;14.10;;;12.60;;
46745;SDS011;32493;50.514;9.678;2023-06-22T05:48:08;15.35;;;12.98;;
46745;SDS011;32493;50.514;9.678;2023-06-22T05:50:17;13.65;;;12.18;;
46745;SDS011;32493;50.514;9.678;2023-06-22T05:52:25;16.10;;;13.18;;
46745;SDS011;32493;50.514;9.678;2023-06-22T05:54:32;16.27;;;12.75;;
46745;SDS011;32493;50.514;9.678;2023-06-22T05:56:37;16.52;;;12.85;;
46745;SDS011;32493;50.514;9.678;2023-06-22T05:58:47;16.15;;;12.35;;
46745;SDS011;32493;50.514;9.678;2023-06-22T06:00:54;16.27;;;13.00;;
46745;SDS011;32493;50.514;9.678;2023-06-22T06:03:08;15.10;;;13.43;;
46745;SDS011;32493;50.514;9.678;2023-06-22T06:05:18;14.40;;;12.90;;
46745;SDS011;32493;50.514;9.678;2023-06-22T06:07:28;14.48;;;12.98;;
46745;SDS011;32493;50.514;9.678;2023-06-22T06:09:37;17.98;;;12.90;;
46745;SDS011;32493;50.514;9.678;2023-06-22T06:11:45;16.52;;;13.30;;
46745;SDS011;32493;50.514;9.678;2023-06-22T06:13:51;16.77;;;12.80;;
46745;SDS011;32493;50.514;9.678;2023-06-22T06:16:03;15.65;;;12.18;;
46745;SDS011;32493;50.514;9.678;2023-06-22T06:18:11;15.27;;;12.00;;
46745;SDS011;32493;50.514;9.678;2023-06-22T06:20:20;16.85;;;12.57;;
46745;SDS011;32493;50.514;9.678;2023-06-22T06:22:28;16.08;;;12.60;;
46745;SDS011;32493;50.514;9.678;2023-06-22T06:24:33;16.20;;;12.50;;
46745;SDS011;32493;50.514;9.678;2023-06-22T06:26:39;14.50;;;12.05;;
46745;SDS011;32493;50.514;9.678;2023-06-22T06:28:46;15.18;;;13.23;;
46745;SDS011;32493;50.514;9.678;2023-06-22T06:30:54;15.55;;;13.15;;
46745;SDS011;32493;50.514;9.678;2023-06-22T06:33:00;23.23;;;13.82;;
46745;SDS011;32493;50.514;9.678;2023-06-22T06:35:17;15.52;;;13.80;;
46745;SDS011;32493;50.514;9.678;2023-06-22T06:37:26;15.55;;;13.35;;
46745;SDS011;32493;50.514;9.678;2023-06-22T06:39:32;16.65;;;13.40;;
46745;SDS011;32493;50.514;9.678;2023-06-22T06:41:37;14.13;;;12.10;;
46745;SDS011;32493;50.514;9.678;2023-06-22T06:43:50;17.88;;;13.70;;
46745;SDS011;32493;50.514;9.678;2023-06-22T06:46:01;19.02;;;13.50;;
46745;SDS011;32493;50.514;9.678;2023-06-22T06:48:09;15.13;;;13.38;;
46745;SDS011;32493;50.514;9.678;2023-06-22T06:50:18;16.63;;;13.90;;
46745;SDS011;32493;50.514;9.678;2023-06-22T06:52:27;20.85;;;14.38;;
46745;SDS011;32493;50.514;9.678;2023-06-22T06:54:33;15.73;;;14.13;;
46745;SDS011;32493;50.514;9.678;2023-06-22T06:56:41;16.25;;;13.50;;
46745;SDS011;32493;50.514;9.678;2023-06-22T06:58:49;15.27;;;13.30;;
46745;SDS011;32493;50.514;9.678;2023-06-22T07:00:55;15.93;;;13.25;;
46745;SDS011;32493;50.514;9.678;2023-06-22T07:03:01;17.02;;;13.15;;
46745;SDS011;32493;50.514;9.678;2023-06-22T07:05:08;15.48;;;13.23;;
46745;SDS011;32493;50.514;9.678;2023-06-22T07:07:20;13.38;;;11.98;;
46745;SDS011;32493;50.514;9.678;2023-06-22T07:09:31;19.02;;;13.30;;
46745;SDS011;32493;50.514;9.678;2023-06-22T07:11:38;14.55;;;13.02;;
46745;SDS011;32493;50.514;9.678;2023-06-22T07:13:45;14.10;;;12.52;;
46745;SDS011;32493;50.514;9.678;2023-06-22T07:15:51;16.65;;;12.23;;
46745;SDS011;32493;50.514;9.678;2023-06-22T07:17:59;15.57;;;12.35;;
46745;SDS011;32493;50.514;9.678;2023-06-22T07:20:05;13.77;;;11.50;;
46745;SDS011;32493;50.514;9.678;2023-06-22T07:22:18;17.83;;;11.60;;
46745;SDS011;32493;50.514;9.678;2023-06-22T07:24:24;16.02;;;11.55;;
46745;SDS011;32493;50.514;9.678;2023-06-22T07:26:29;15.57;;;11.68;;
46745;SDS011;32493;50.514;9.678;2023-06-22T07:28:39;12.77;;;11.48;;
46745;SDS011;32493;50.514;9.678;2023-06-22T07:30:46;16.17;;;12.93;;
46745;SDS011;32493;50.514;9.678;2023-06-22T07:32:53;15.27;;;11.27;;
46745;SDS011;32493;50.514;9.678;2023-06-22T07:35:08;16.20;;;12.38;;
46745;SDS011;32493;50.514;9.678;2023-06-22T07:37:14;14.25;;;12.52;;
46745;SDS011;32493;50.514;9.678;2023-06-22T07:39:23;19.17;;;12.95;;
46745;SDS011;32493;50.514;9.678;2023-06-22T07:41:30;14.13;;;12.68;;
46745;SDS011;32493;50.514;9.678;2023-06-22T07:43:36;13.65;;;10.82;;
46745;SDS011;32493;50.514;9.678;2023-06-22T07:45:47;15.83;;;12.17;;
46745;SDS011;32493;50.514;9.678;2023-06-22T07:47:59;17.10;;;11.98;;
46745;SDS011;32493;50.514;9.678;2023-06-22T07:50:05;17.88;;;12.80;;
46745;SDS011;32493;50.514;9.678;2023-06-22T07:52:11;14.82;;;11.77;;
46745;SDS011;32493;50.514;9.678;2023-06-22T07:54:19;13.73;;;11.70;;
46745;SDS011;32493;50.514;9.678;2023-06-22T07:56:27;13.80;;;10.75;;
46745;SDS011;32493;50.514;9.678;2023-06-22T07:58:34;13.90;;;12.40;;
46745;SDS011;32493;50.514;9.678;2023-06-22T08:00:40;13.25;;;10.80;;
46745;SDS011;32493;50.514;9.678;2023-06-22T08:02:47;13.52;;;11.52;;
46745;SDS011;32493;50.514;9.678;2023-06-22T08:04:54;12.75;;;11.32;;
46745;SDS011;32493;50.514;9.678;2023-06-22T08:07:20;15.40;;;12.02;;
46745;SDS011;32493;50.514;9.678;2023-06-22T08:09:31;14.95;;;11.40;;
46745;SDS011;32493;50.514;9.678;2023-06-22T08:11:37;15.35;;;12.20;;
46745;SDS011;32493;50.514;9.678;2023-06-22T08:13:43;12.02;;;10.57;;
46745;SDS011;32493;50.514;9.678;2023-06-22T08:15:49;11.83;;;9.60;;
46745;SDS011;32493;50.514;9.678;2023-06-22T08:17:55;11.75;;;9.98;;
46745;SDS011;32493;50.514;9.678;2023-06-22T08:20:02;14.27;;;9.75;;
46745;SDS011;32493;50.514;9.678;2023-06-22T08:22:12;10.80;;;9.38;;
46745;SDS011;32493;50.514;9.678;2023-06-22T08:24:18;11.55;;;9.13;;
46745;SDS011;32493;50.514;9.678;2023-06-22T08:26:26;11.23;;;9.40;;
46745;SDS011;32493;50.514;9.678;2023-06-22T08:28:32;10.43;;;9.23;;
46745;SDS011;32493;50.514;9.678;2023-06-22T08:30:38;13.38;;;9.48;;
46745;SDS011;32493;50.514;9.678;2023-06-22T08:32:45;12.45;;;8.90;;
46745;SDS011;32493;50.514;9.678;2023-06-22T08:34:58;12.05;;;9.30;;
46745;SDS011;32493;50.514;9.678;2023-06-22T08:37:03;11.35;;;8.98;;
46745;SDS011;32493;50.514;9.678;2023-06-22T08:39:09;11.57;;;8.77;;
46745;SDS011;32493;50.514;9.678;2023-06-22T08:41:15;11.50;;;8.85;;
46745;SDS011;32493;50.514;9.678;2023-06-22T08:43:29;11.73;;;9.25;;
46745;SDS011;32493;50.514;9.678;2023-06-22T08:45:34;11.05;;;8.57;;
46745;SDS011;32493;50.514;9.678;2023-06-22T08:47:41;10.80;;;8.57;;
46745;SDS011;32493;50.514;9.678;2023-06-22T08:49:48;10.27;;;8.60;;
46745;SDS011;32493;50.514;9.678;2023-06-22T08:51:54;10.90;;;8.32;;
46745;SDS011;32493;50.514;9.678;2023-06-22T08:54:00;9.85;;;8.50;;
46745;SDS011;32493;50.514;9.678;2023-06-22T08:56:13;9.63;;;8.18;;
46745;SDS011;32493;50.514;9.678;2023-06-22T08:58:19;9.60;;;8.40;;
46745;SDS011;32493;50.514;9.678;2023-06-22T09:00:29;9.85;;;8.85;;
46745;SDS011;32493;50.514;9.678;2023-06-22T09:02:38;9.88;;;7.95;;
46745;SDS011;32493;50.514;9.678;2023-06-22T09:04:46;10.88;;;8.23;;
46745;SDS011;32493;50.514;9.678;2023-06-22T09:06:57;13.00;;;9.05;;
46745;SDS011;32493;50.514;9.678;2023-06-22T09:09:03;10.45;;;8.00;;
46745;SDS011;32493;50.514;9.678;2023-06-22T09:11:12;9.38;;;8.30;;
46745;SDS011;32493;50.514;9.678;2023-06-22T09:13:17;9.70;;;7.50;;
46745;SDS011;32493;50.514;9.678;2023-06-22T09:15:31;9.98;;;8.45;;
46745;SDS011;32493;50.514;9.678;2023-06-22T09:17:40;10.88;;;8.38;;
46745;SDS011;32493;50.514;9.678;2023-06-22T09:19:47;8.68;;;7.78;;
46745;SDS011;32493;50.514;9.678;2023-06-22T09:21:56;10.00;;;7.22;;
46745;SDS011;32493;50.514;9.678;2023-06-22T09:24:01;9.93;;;7.38;;
46745;SDS011;32493;50.514;9.678;2023-06-22T09:26:08;11.23;;;7.78;;
46745;SDS011;32493;50.514;9.678;2023-06-22T09:28:16;8.80;;;7.77;;
46745;SDS011;32493;50.514;9.678;2023-06-22T09:30:23;7.53;;;6.32;;
46745;SDS011;32493;50.514;9.678;2023-06-22T09:32:31;8.25;;;5.80;;
46745;SDS011;32493;50.514;9.678;2023-06-22T09:34:37;8.27;;;6.38;;
46745;SDS011;32493;50.514;9.678;2023-06-22T09:36:44;9.32;;;5.95;;
46745;SDS011;32493;50.514;9.678;2023-06-22T09:38:49;9.50;;;5.50;;
46745;SDS011;32493;50.514;9.678;2023-06-22T09:41:03;9.18;;;6.38;;
46745;SDS011;32493;50.514;9.678;2023-06-22T09:43:09;7.20;;;5.57;;
46745;SDS011;32493;50.514;9.678;2023-06-22T09:45:15;8.48;;;5.65;;
46745;SDS011;32493;50.514;9.678;2023-06-22T09:47:22;8.40;;;5.85;;
46745;SDS011;32493;50.514;9.678;2023-06-22T09:49:30;6.05;;;5.40;;
46745;SDS011;32493;50.514;9.678;2023-06-22T09:51:48;12.77;;;6.38;;
46745;SDS011;32493;50.514;9.678;2023-06-22T09:53:54;7.28;;;5.95;;
46745;SDS011;32493;50.514;9.678;2023-06-22T09:56:01;7.00;;;6.00;;
46745;SDS011;32493;50.514;9.678;2023-06-22T09:58:12;7.72;;;6.35;;
46745;SDS011;32493;50.514;9.678;2023-06-22T10:00:20;7.50;;;5.03;;
46745;SDS011;32493;50.514;9.678;2023-06-22T10:02:28;8.05;;;4.95;;
46745;SDS011;32493;50.514;9.678;2023-06-22T10:04:37;8.88;;;5.43;;
46745;SDS011;32493;50.514;9.678;2023-06-22T10:06:45;6.85;;;4.97;;
46745;SDS011;32493;50.514;9.678;2023-06-22T10:08:52;7.13;;;5.25;;
46745;SDS011;32493;50.514;9.678;2023-06-22T10:11:00;9.95;;;5.43;;
46745;SDS011;32493;50.514;9.678;2023-06-22T10:13:08;9.57;;;5.60;;
46745;SDS011;32493;50.514;9.678;2023-06-22T10:15:16;8.73;;;6.07;;
46745;SDS011;32493;50.514;9.678;2023-06-22T10:17:24;6.22;;;5.03;;
46745;SDS011;32493;50.514;9.678;2023-06-22T10:19:32;7.70;;;5.57;;
46745;SDS011;32493;50.514;9.678;2023-06-22T10:21:41;7.30;;;6.03;;
46745;SDS011;32493;50.514;9.678;2023-06-22T10:23:47;8.73;;;6.10;;
46745;SDS011;32493;50.514;9.678;2023-06-22T10:25:58;8.45;;;6.20;;
46745;SDS011;32493;50.514;9.678;2023-06-22T10:28:04;7.97;;;6.13;;
46745;SDS011;32493;50.514;9.678;2023-06-22T10:30:12;9.82;;;6.22;;
46745;SDS011;32493;50.514;9.678;2023-06-22T10:32:24;7.85;;;5.93;;
46745;SDS011;32493;50.514;9.678;2023-06-22T10:34:32;7.72;;;5.82;;
46745;SDS011;32493;50.514;9.678;2023-06-22T10:36:45;7.45;;;6.20;;
46745;SDS011;32493;50.514;9.678;2023-06-22T10:38:52;6.00;;;5.07;;
46745;SDS011;32493;50.514;9.678;2023-06-22T10:41:00;6.97;;;5.53;;
46745;SDS011;32493;50.514;9.678;2023-06-22T10:43:11;8.90;;;6.40;;
46745;SDS011;32493;50.514;9.678;2023-06-22T10:45:18;8.45;;;6.30;;
46745;SDS011;32493;50.514;9.678;2023-06-22T10:47:30;8.02;;;5.90;;
46745;SDS011;32493;50.514;9.678;2023-06-22T10:49:37;8.50;;;5.93;;
46745;SDS011;32493;50.514;9.678;2023-06-22T10:51:46;8.88;;;6.22;;
46745;SDS011;32493;50.514;9.678;2023-06-22T10:53:53;7.90;;;5.68;;
46745;SDS011;32493;50.514;9.678;2023-06-22T10:56:01;7.10;;;5.53;;
46745;SDS011;32493;50.514;9.678;2023-06-22T10:58:07;5.28;;;4.43;;
46745;SDS011;32493;50.514;9.678;2023-06-22T11:00:14;6.73;;;4.97;;
46745;SDS011;32493;50.514;9.678;2023-06-22T11:02:20;5.78;;;4.68;;
46745;SDS011;32493;50.514;9.678;2023-06-22T11:04:32;5.70;;;5.10;;
46745;SDS011;32493;50.514;9.678;2023-06-22T11:06:38;6.47;;;4.78;;
46745;SDS011;32493;50.514;9.678;2023-06-22T11:08:46;6.90;;;4.95;;
46745;SDS011;32493;50.514;9.678;2023-06-22T11:11:07;6.70;;;4.93;;
46745;SDS011;32493;50.514;9.678;2023-06-22T11:13:13;6.07;;;5.25;;
46745;SDS011;32493;50.514;9.678;2023-06-22T11:15:21;6.30;;;5.47;;
46745;SDS011;32493;50.514;9.678;2023-06-22T11:17:27;7.35;;;4.70;;
46745;SDS011;32493;50.514;9.678;2023-06-22T11:19:35;7.03;;;5.18;;
46745;SDS011;32493;50.514;9.678;2023-06-22T11:21:41;5.55;;;4.97;;
46745;SDS011;32493;50.514;9.678;2023-06-22T11:28:19;5.75;;;5.18;;
46745;SDS011;32493;50.514;9.678;2023-06-22T11:30:25;8.65;;;5.20;;
46745;SDS011;32493;50.514;9.678;2023-06-22T11:32:41;6.00;;;4.97;;
46745;SDS011;32493;50.514;9.678;2023-06-22T11:34:47;6.25;;;4.78;;
46745;SDS011;32493;50.514;9.678;2023-06-22T11:36:57;7.07;;;5.40;;
46745;SDS011;32493;50.514;9.678;2023-06-22T11:39:03;6.30;;;4.93;;
46745;SDS011;32493;50.514;9.678;2023-06-22T11:41:13;6.78;;;4.90;;
46745;SDS011;32493;50.514;9.678;2023-06-22T11:43:19;6.20;;;5.07;;
46745;SDS011;32493;50.514;9.678;2023-06-22T11:45:25;6.10;;;5.32;;
46745;SDS011;32493;50.514;9.678;2023-06-22T11:47:33;6.15;;;5.20;;
46745;SDS011;32493;50.514;9.678;2023-06-22T11:49:41;6.10;;;5.50;;
46745;SDS011;32493;50.514;9.678;2023-06-22T11:51:46;8.73;;;5.57;;
46745;SDS011;32493;50.514;9.678;2023-06-22T11:53:53;7.95;;;5.43;;
46745;SDS011;32493;50.514;9.678;2023-06-22T11:56:05;7.05;;;5.53;;
46745;SDS011;32493;50.514;9.678;2023-06-22T11:58:13;7.35;;;5.95;;
46745;SDS011;32493;50.514;9.678;2023-06-22T12:00:20;6.47;;;5.82;;
46745;SDS011;32493;50.514;9.678;2023-06-22T12:02:30;7.57;;;5.70;;
46745;SDS011;32493;50.514;9.678;2023-06-22T12:04:38;7.20;;;5.97;;
46745;SDS011;32493;50.514;9.678;2023-06-22T12:06:44;7.03;;;6.30;;
46745;SDS011;32493;50.514;9.678;2023-06-22T12:08:54;5.88;;;5.28;;
46745;SDS011;32493;50.514;9.678;2023-06-22T12:11:01;11.07;;;5.47;;
46745;SDS011;32493;50.514;9.678;2023-06-22T12:13:07;7.63;;;5.65;;
46745;SDS011;32493;50.514;9.678;2023-06-22T12:15:17;8.23;;;5.68;;
46745;SDS011;32493;50.514;9.678;2023-06-22T12:17:24;8.30;;;5.68;;
46745;SDS011;32493;50.514;9.678;2023-06-22T12:19:31;6.53;;;5.90;;
46745;SDS011;32493;50.514;9.678;2023-06-22T12:21:37;9.32;;;5.78;;
46745;SDS011;32493;50.514;9.678;2023-06-22T12:23:50;7.00;;;6.05;;
46745;SDS011;32493;50.514;9.678;2023-06-22T12:25:57;7.57;;;6.05;;
46745;SDS011;32493;50.514;9.678;2023-06-22T12:28:03;8.77;;;6.18;;
46745;SDS011;32493;50.514;9.678;2023-06-22T12:30:09;7.95;;;5.82;;
46745;SDS011;32493;50.514;9.678;2023-06-22T12:32:18;8.43;;;5.63;;
46745;SDS011;32493;50.514;9.678;2023-06-22T12:34:23;7.28;;;5.68;;
46745;SDS011;32493;50.514;9.678;2023-06-22T12:36:31;7.60;;;6.10;;
46745;SDS011;32493;50.514;9.678;2023-06-22T12:38:36;6.47;;;5.75;;
46745;SDS011;32493;50.514;9.678;2023-06-22T12:40:44;10.70;;;6.03;;
46745;SDS011;32493;50.514;9.678;2023-06-22T12:42:53;7.53;;;6.00;;
46745;SDS011;32493;50.514;9.678;2023-06-22T12:44:59;6.75;;;5.95;;
46745;SDS011;32493;50.514;9.678;2023-06-22T12:47:07;9.25;;;5.93;;
46745;SDS011;32493;50.514;9.678;2023-06-22T12:49:17;8.43;;;5.47;;
46745;SDS011;32493;50.514;9.678;2023-06-22T12:51:22;9.85;;;5.50;;
46745;SDS011;32493;50.514;9.678;2023-06-22T12:53:36;10.45;;;5.75;;
46745;SDS011;32493;50.514;9.678;2023-06-22T12:55:41;12.73;;;6.28;;
46745;SDS011;32493;50.514;9.678;2023-06-22T12:57:48;7.83;;;5.57;;
46745;SDS011;32493;50.514;9.678;2023-06-22T12:59:54;7.25;;;6.40;;
46745;SDS011;32493;50.514;9.678;2023-06-22T13:02:03;7.40;;;5.80;;